Terminal Aerodrome Forecast
Issued by NWS

Home | Current Version | Previous Version | Text Only | Print | Product List | Glossary On
Versions: 1 2 3 4 5 6 7 8 9 10 11 12 13 14 15 16 17 18 19 20 21 22 23 24 25 26 27
126
FTUS41 KPBZ 230521
TAFMGW
TAF
KMGW 230521Z 2306/2406 11005KT P6SM -DZ VCSH OVC015
      TEMPO 2308/2311 OVC008
     FM231100 13006KT 6SM -RA BR OVC008
     FM231900 22010G20KT 4SM -SHRA BR OVC015
     FM240100 24006KT 6SM -SHRA OVC020=

USA.gov is the U.S. government's official web portal to all federal, state and local government web resources and services.